地図

経路データ

SID SEASON NUMBER BASIN SUBBASIN NAME ISO_TIME NATURE LAT LON WMO_WIND WMO_PRES WMO_AGENCY TRACK_TYPE DIST2LAND LANDFALL IFLAG USA_AGENCY USA_ATCF_ID USA_LAT USA_LON USA_RECORD USA_STATUS USA_WIND USA_PRES USA_SSHS USA_R34_NE USA_R34_SE USA_R34_SW USA_R34_NW USA_R50_NE USA_R50_SE USA_R50_SW USA_R50_NW USA_R64_NE USA_R64_SE USA_R64_SW USA_R64_NW USA_POCI USA_ROCI USA_RMW USA_EYE TOKYO_LAT TOKYO_LON TOKYO_GRADE TOKYO_WIND TOKYO_PRES TOKYO_R50_DIR TOKYO_R50_LONG TOKYO_R50_SHORT TOKYO_R30_DIR TOKYO_R30_LONG TOKYO_R30_SHORT TOKYO_LAND CMA_LAT CMA_LON CMA_CAT CMA_WIND CMA_PRES HKO_LAT HKO_LON HKO_CAT HKO_WIND HKO_PRES NEWDELHI_LAT NEWDELHI_LON NEWDELHI_GRADE NEWDELHI_WIND NEWDELHI_PRES NEWDELHI_CI NEWDELHI_DP NEWDELHI_POCI REUNION_LAT REUNION_LON REUNION_TYPE REUNION_WIND REUNION_PRES REUNION_TNUM REUNION_CI REUNION_RMW REUNION_R34_NE REUNION_R34_SE REUNION_R34_SW REUNION_R34_NW REUNION_R50_NE REUNION_R50_SE REUNION_R50_SW REUNION_R50_NW REUNION_R64_NE REUNION_R64_SE REUNION_R64_SW REUNION_R64_NW BOM_LAT BOM_LON BOM_TYPE BOM_WIND BOM_PRES BOM_TNUM BOM_CI BOM_RMW BOM_R34_NE BOM_R34_SE BOM_R34_SW BOM_R34_NW BOM_R50_NE BOM_R50_SE BOM_R50_SW BOM_R50_NW BOM_R64_NE BOM_R64_SE BOM_R64_SW BOM_R64_NW BOM_ROCI BOM_POCI BOM_EYE BOM_POS_METHOD BOM_PRES_METHOD NADI_LAT NADI_LON NADI_CAT NADI_WIND NADI_PRES WELLINGTON_LAT WELLINGTON_LON WELLINGTON_WIND WELLINGTON_PRES DS824_LAT DS824_LON DS824_STAGE DS824_WIND DS824_PRES TD9636_LAT TD9636_LON TD9636_STAGE TD9636_WIND TD9636_PRES TD9635_LAT TD9635_LON TD9635_WIND TD9635_PRES TD9635_ROCI NEUMANN_LAT NEUMANN_LON NEUMANN_CLASS NEUMANN_WIND NEUMANN_PRES MLC_LAT MLC_LON MLC_CLASS MLC_WIND MLC_PRES USA_GUST BOM_GUST BOM_GUST_PER REUNION_GUST REUNION_GUST_PER USA_SEAHGT USA_SEARAD_NE USA_SEARAD_SE USA_SEARAD_SW USA_SEARAD_NW STORM_SPEED STORM_DIR
1992268N11193 1992 96 EP CP WARD 1992-09-23 18:00:00 NR 11.0000 193.000 main 1450 1450 O_____________ jtwc_wp WP211992 11.0000 -167.000 15 -1 10 287
1992268N11193 1992 96 EP CP WARD 1992-09-23 21:00:00 NR 11.1502 192.500 main 1460 1460 P_____________ WP211992 11.1502 -167.500 15 -1 10 287
1992268N11193 1992 96 EP CP WARD 1992-09-24 00:00:00 NR 11.3000 192.000 main 1481 1481 O_____________ jtwc_wp WP211992 11.3000 -168.000 15 -1 10 287
1992268N11193 1992 96 EP CP WARD 1992-09-24 03:00:00 NR 11.4499 191.500 main 1504 1495 P_____________ WP211992 11.4499 -168.500 15 -1 10 287
1992268N11193 1992 96 EP CP WARD 1992-09-24 06:00:00 NR 11.6000 191.000 main 1520 1520 O_____________ jtwc_wp WP211992 11.6000 -169.000 15 -1 10 287
1992268N11193 1992 96 EP CP WARD 1992-09-24 09:00:00 NR 11.7574 190.500 main 1537 1537 P_____________ WP211992 11.7574 -169.500 17 -1 10 287
1992268N11193 1992 96 EP CP WARD 1992-09-24 12:00:00 NR 11.9000 190.000 main 1565 1565 O_____________ jtwc_wp WP211992 11.9000 -170.000 20 -1 10 285
1992268N11193 1992 96 EP CP WARD 1992-09-24 15:00:00 NR 12.0149 189.500 main 1594 1594 P_____________ WP211992 12.0149 -170.500 20 -1 10 282
1992268N11193 1992 96 EP CP WARD 1992-09-24 18:00:00 NR 12.1000 189.000 main 1624 1624 O_____________ jtwc_wp WP211992 12.1000 -171.000 20 -1 10 278
1992268N11193 1992 96 EP CP WARD 1992-09-24 21:00:00 NR 12.1574 188.500 main 1656 1656 P_____________ WP211992 12.1574 -171.500 20 -1 10 276
1992268N11193 1992 96 EP CP WARD 1992-09-25 00:00:00 NR 12.2000 188.000 main 1696 1696 O_____________ jtwc_wp WP211992 12.2000 -172.000 20 -1 10 275
1992268N11193 1992 96 EP CP WARD 1992-09-25 03:00:00 NR 12.2349 187.507 main 1737 1737 P_____________ WP211992 12.2349 -172.493 20 -1 10 276
1992268N11193 1992 96 EP CP WARD 1992-09-25 06:00:00 NR 12.3000 187.000 main 1771 1771 O_____________ jtwc_wp WP211992 12.3000 -173.000 20 -1 10 281
1992268N11193 1992 96 EP CP WARD 1992-09-25 09:00:00 NR 12.4349 186.458 main 1807 1807 P_____________ WP211992 12.4349 -173.542 20 -1 11 286
1992268N11193 1992 96 EP CP WARD 1992-09-25 12:00:00 NR 12.6000 185.900 main 1845 1845 O_____________ jtwc_wp WP211992 12.6000 -174.100 20 -1 11 286
1992268N11193 1992 96 EP CP WARD 1992-09-25 15:00:00 NR 12.7424 185.342 main 1891 1884 P_____________ WP211992 12.7424 -174.658 20 -1 11 286
1992268N11193 1992 96 EP CP WARD 1992-09-25 18:00:00 NR 12.9000 184.800 main 1922 1922 O_____________ jtwc_wp WP211992 12.9000 -175.200 20 -1 11 289
1992268N11193 1992 96 EP CP WARD 1992-09-25 21:00:00 NR 13.0849 184.292 main 1955 1955 P_____________ WP211992 13.0849 -175.708 22 -1 11 292
1992268N11193 1992 96 EP CP WARD 1992-09-26 00:00:00 NR 13.3000 183.800 main 1989 1989 O_____________ jtwc_wp WP211992 13.3000 -176.200 25 -1 11 296
1992268N11193 1992 96 EP CP WARD 1992-09-26 03:00:00 NR 13.5499 183.293 main 2024 2018 P_____________ WP211992 13.5499 -176.707 25 -1 11 297
1992268N11193 1992 96 EP CP WARD 1992-09-26 06:00:00 NR 13.8000 182.800 main 2054 2054 O_____________ jtwc_wp WP211992 13.8000 -177.200 25 -1 10 296
1992268N11193 1992 96 EP CP WARD 1992-09-26 09:00:00 NR 13.9999 182.342 main 2091 2091 P_____________ WP211992 13.9999 -177.658 27 -1 10 295
1992268N11193 1992 96 EP CP WARD 1992-09-26 12:00:00 NR 14.2000 181.900 main 2119 2119 O_____________ jtwc_wp WP211992 14.2000 -178.100 30 -1 10 298
1992268N11193 1992 96 EP CP WARD 1992-09-26 15:00:00 NR 14.4499 181.457 main 2148 2148 P_____________ WP211992 14.4499 -178.543 30 -1 9 287
1992268N11193 1992 96 EP CP WARD 1992-09-26 18:00:00 TS 14.4667 181.000 main 2191 2191 OOO___________ jtwc_wp WP211992 14.7000 -179.000 30 -1 14.0000 181.000 7 1002 0 0 0 14.0000 181.000 1 29 1002 11 290
1992268N11193 1992 96 EP CP WARD 1992-09-26 21:00:00 TS 14.8210 180.390 main 2236 2236 PPP___________ WP211992 14.9150 -179.500 32 -1 14.7257 -179.719 7 1001 0 0 14.7282 -179.721 1 29 1001 14 304
1992268N11193 1992 96 WP MM WARD 1992-09-27 00:00:00 TS 15.2273 179.836 35 1000 tokyo main 2277 2273 OOOO__________ jtwc_wp WP211992 15.1000 180.000 35 0 15.3000 179.700 3 35 1000 0 9 100 100 0 15.3000 179.700 1 29 1000 15.3000 180.000 TS 35 990 12 306
1992268N11193 1992 96 WP MM WARD 1992-09-27 03:00:00 TS 15.5062 179.427 main 2305 2305 PPPP__________ WP211992 15.2499 179.527 35 0 15.6246 179.347 3 35 1000 0 9 110 110 15.6171 179.354 1 33 999 15.5603 179.530 TS 35 990 9 303
1992268N11193 1992 96 WP MM WARD 1992-09-27 06:00:00 TS 15.6933 179.100 35 1000 tokyo main 2326 2326 OOOO__________ jtwc_wp WP211992 15.4000 179.100 35 0 15.8000 179.100 3 35 1000 0 9 120 120 0 15.8000 179.100 2 38 998 15.8000 179.100 TS 35 990 8 301
1992268N11193 1992 96 WP MM WARD 1992-09-27 09:00:00 TS 15.8930 178.755 main 2349 2349 PPPP__________ WP211992 15.5999 178.735 37 0 15.9575 178.800 3 37 998 0 9 125 125 16.0075 178.750 2 38 996 16.0074 178.735 TS 37 987 8 300
1992268N11193 1992 96 WP MM WARD 1992-09-27 12:00:00 TS 16.0750 178.425 40 996 tokyo main 2381 2381 OOOO__________ jtwc_wp WP211992 15.8000 178.400 40 0 16.1000 178.500 3 40 996 0 9 130 130 0 16.2000 178.400 2 38 995 16.2000 178.400 TS 40 985 7 301
1992268N11193 1992 96 WP MM WARD 1992-09-27 15:00:00 TS 16.2718 178.100 main 2404 2404 PPPP__________ WP211992 15.9500 178.035 40 0 16.3074 178.215 3 40 995 0 9 135 135 16.4224 178.100 2 38 992 16.4074 178.050 TS 42 982 7 301
1992268N11193 1992 96 WP MM WARD 1992-09-27 18:00:00 TS 16.4500 177.775 40 994 tokyo main 2427 2427 OOOO__________ jtwc_wp WP211992 16.1000 177.700 40 0 16.5000 177.900 3 40 994 0 9 140 140 0 16.6000 177.800 2 38 990 16.6000 177.700 TS 45 980 7 296
1992268N11193 1992 96 WP MM WARD 1992-09-27 21:00:00 TS 16.5957 177.421 main 2464 2464 PPPP__________ WP211992 16.3075 177.413 42 0 16.6226 177.492 3 42 992 0 9 145 145 16.6725 177.442 2 38 990 16.7800 177.335 TS 47 977 7 291
1992268N11193 1992 96 WP MM WARD 1992-09-28 00:00:00 TS 16.7000 177.100 45 990 tokyo main 2492 2492 OOOO__________ jtwc_wp WP211992 16.5000 177.200 45 0 16.7000 177.100 3 45 990 0 9 150 150 0 16.7000 177.100 2 38 990 16.9000 177.000 STS 50 975 6 286
1992268N11193 1992 96 WP MM WARD 1992-09-28 03:00:00 TS 16.7612 176.837 main 2519 2519 PPPP__________ WP211992 16.6150 177.062 47 0 16.7499 176.805 3 47 987 0 9 155 155 16.7425 176.812 2 43 987 16.9375 176.667 STS 50 975 4 284
1992268N11193 1992 96 WP MM WARD 1992-09-28 06:00:00 TS 16.8000 176.675 50 985 tokyo main 2529 2529 OOOO__________ jtwc_wp WP211992 16.7000 177.000 50 0 16.8000 176.600 4 50 985 0 9 160 160 0 16.8000 176.600 3 48 985 16.9000 176.500 STS 50 975 2 290
1992268N11193 1992 96 WP MM WARD 1992-09-28 09:00:00 TS 16.8387 176.619 main 2539 2526 PPPP__________ WP211992 16.7925 176.977 52 0 16.8924 176.433 4 50 985 0 9 160 160 16.8924 176.433 3 48 985 16.7775 176.633 STS 52 972 1 0
1992268N11193 1992 96 WP MM WARD 1992-09-28 12:00:00 TS 16.9000 176.675 50 985 tokyo main 2526 2512 OOOO__________ jtwc_wp WP211992 16.9000 177.000 55 0 17.0000 176.400 4 50 985 0 9 160 160 0 17.0000 176.400 3 48 985 16.7000 176.900 STS 55 970 2 47
1992268N11193 1992 96 WP MM WARD 1992-09-28 15:00:00 TS 17.0044 176.804 main 2512 2489 PPPP__________ WP211992 17.0350 177.035 57 0 17.0925 176.533 4 52 982 0 9 180 180 17.0925 176.533 3 53 982 16.7975 177.115 STS 60 965 4 51
1992268N11193 1992 96 WP MM WARD 1992-09-28 18:00:00 TS 17.1500 177.000 55 980 tokyo main 2485 2462 OOOO__________ jtwc_wp WP211992 17.2000 177.100 60 0 17.2000 176.800 4 55 980 9 40 40 9 200 200 0 17.2000 176.800 3 58 980 17.0000 177.300 T 65 960 5 56
1992268N11193 1992 96 WP MM WARD 1992-09-28 21:00:00 TS 17.2851 177.233 main 2462 2435 PPPP__________ WP211992 17.3625 177.193 65 1 17.2827 177.158 4 60 975 9 55 55 9 200 200 17.2827 177.158 3 58 977 17.2125 177.423 T 70 957 6 49
1992268N11193 1992 96 WP MM WARD 1992-09-29 00:00:00 TS 17.5250 177.450 65 970 tokyo main 2425 2403 OOOO__________ jtwc_wp WP211992 17.6000 177.300 70 1 17.5000 177.500 5 65 970 9 70 70 9 200 200 0 17.5000 177.500 3 58 975 17.5000 177.500 T 75 955 8 27
1992268N11193 1992 96 WP MM WARD 1992-09-29 03:00:00 TS 17.9531 177.591 main 2400 2379 PPPP__________ WP211992 17.9400 177.400 75 1 18.0124 177.695 5 67 967 9 70 70 9 200 200 18.0124 177.695 3 63 972 17.8475 177.572 T 72 957 10 13
1992268N11193 1992 96 WP MM WARD 1992-09-29 06:00:00 TS 18.4750 177.675 70 965 tokyo main 2377 2356 OOOO__________ jtwc_wp WP211992 18.4000 177.500 80 1 18.6000 177.800 5 70 965 9 70 70 9 200 200 0 18.6000 177.800 4 68 970 18.3000 177.600 T 70 960 10 9
1992268N11193 1992 96 WP MM WARD 1992-09-29 09:00:00 TS 18.9412 177.754 main 2356 2345 PPPP__________ WP211992 18.9475 177.630 82 1 18.9850 177.895 5 70 965 9 70 70 9 200 200 18.9775 177.902 4 68 970 18.8550 177.587 T 70 960 10 4
1992268N11193 1992 96 WP MM WARD 1992-09-29 12:00:00 TS 19.4750 177.750 70 965 tokyo main 2343 2342 OOOO__________ jtwc_wp WP211992 19.6000 177.700 85 2 19.4000 177.900 5 70 965 9 70 70 9 200 200 0 19.4000 177.900 4 68 970 19.5000 177.500 T 70 960 12 355
1992268N11193 1992 96 WP MM WARD 1992-09-29 15:00:00 TS 20.1355 177.653 main 2342 2342 PPPP__________ WP211992 20.3349 177.660 85 2 19.9823 177.839 5 70 965 9 70 70 9 200 200 20.0324 177.775 4 68 970 20.1925 177.337 T 70 960 14 348
1992268N11193 1992 96 WP MM WARD 1992-09-29 18:00:00 TS 20.8750 177.425 70 965 tokyo main 2360 2358 OOOO__________ jtwc_wp WP211992 21.1000 177.500 85 2 20.7000 177.600 5 70 965 9 70 70 9 200 200 0 20.8000 177.500 4 68 970 20.9000 177.100 T 70 960 16 340
1992268N11193 1992 96 WP MM WARD 1992-09-29 21:00:00 TS 21.6470 177.057 main 2382 2382 PPPP__________ WP211992 21.8224 177.260 85 2 21.5505 177.081 5 67 967 9 65 65 9 190 190 21.6577 177.073 4 68 967 21.5575 176.815 T 67 965 17 334
1992268N11193 1992 96 WP MM WARD 1992-09-30 00:00:00 TS 22.4000 176.625 65 970 tokyo main 2426 2426 OOOO__________ jtwc_wp WP211992 22.5000 176.900 85 2 22.4000 176.500 5 65 970 9 60 60 9 180 180 0 22.5000 176.600 4 68 965 22.2000 176.500 T 65 970 16 332
1992268N11193 1992 96 WP MM WARD 1992-09-30 03:00:00 TS 23.0786 176.251 main 2453 2453 PPPP__________ WP211992 23.1301 176.430 82 1 23.1097 176.112 5 62 972 9 60 60 9 180 180 23.2173 176.235 4 68 965 22.8572 176.229 T 62 972 15 332
1992268N11193 1992 96 WP MM WARD 1992-09-30 06:00:00 TS 23.6750 175.875 60 975 tokyo main 2493 2493 OOOO__________ jtwc_wp WP211992 23.7000 175.900 80 1 23.7000 175.800 4 60 975 9 60 60 9 180 180 0 23.8000 175.900 4 68 965 23.5000 175.900 STS 60 975 13 329
1992268N11193 1992 96 WP MM WARD 1992-09-30 09:00:00 TS 24.2033 175.505 main 2533 2533 PPPP__________ WP211992 24.2370 175.429 80 1 24.2020 175.537 4 60 975 9 60 60 9 210 180 24.2370 175.594 4 68 965 24.1372 175.460 STS 60 975 12 322
1992268N11193 1992 96 WP MM WARD 1992-09-30 12:00:00 TS 24.6500 175.050 60 975 tokyo main 2575 2585 OOOO__________ jtwc_wp WP211992 24.7000 174.900 80 1 24.6000 175.200 4 60 975 9 60 60 1 240 180 0 24.6000 175.200 4 68 965 24.7000 174.900 STS 60 975 13 312
1992268N11193 1992 96 WP MM WARD 1992-09-30 15:00:00 TS 25.0534 174.459 main 2637 2637 PPPP__________ WP211992 25.1024 174.238 77 1 24.9217 174.712 4 60 975 9 60 60 1 240 180 25.0295 174.640 4 68 965 25.1598 174.245 STS 60 972 14 301
1992268N11193 1992 96 WP MM WARD 1992-09-30 18:00:00 TS 25.3750 173.725 60 975 tokyo main 2718 2718 OOOO__________ jtwc_wp WP211992 25.4000 173.500 75 1 25.2000 174.000 4 60 975 9 60 60 1 240 180 0 25.4000 173.900 4 68 965 25.5000 173.500 STS 60 970 16 292
1992268N11193 1992 96 WP MM WARD 1992-09-30 21:00:00 TS 25.6402 172.862 main 2799 2799 PPPP__________ WP211992 25.6020 172.772 75 1 25.5387 172.981 4 62 972 9 60 60 1 250 180 25.6529 172.980 4 68 965 25.7673 172.715 STS 62 967 17 285
1992268N11193 1992 96 WP MM WARD 1992-10-01 00:00:00 TS 25.8000 171.950 65 970 tokyo main 2890 2890 OOOO__________ jtwc_wp WP211992 25.7000 172.000 75 1 25.8000 171.900 5 65 970 9 60 60 1 260 180 0 25.8000 172.000 4 68 965 25.9000 171.900 T 65 965 16 278
1992268N11193 1992 96 WP MM WARD 1992-10-01 03:00:00 TS 25.8643 171.119 main 2897 2862 PPPP__________ WP211992 25.7373 171.165 77 1 25.9162 171.070 5 65 970 9 60 60 1 260 180 25.9017 171.135 4 68 967 25.9019 171.107 T 70 960 15 271
1992268N11193 1992 96 WP MM WARD 1992-10-01 06:00:00 TS 25.8250 170.300 65 970 tokyo main 2862 2829 OOOO__________ jtwc_wp WP211992 25.7000 170.300 80 1 25.9000 170.300 5 65 970 9 60 60 1 260 180 0 25.9000 170.300 4 68 970 25.8000 170.300 T 75 955 15 264
1992268N11193 1992 96 WP MM WARD 1992-10-01 09:00:00 TS 25.7154 169.442 main 2823 2790 PPPP__________ WP211992 25.6296 169.443 80 1 25.7799 169.442 5 67 967 9 65 65 1 260 180 25.7798 169.435 4 68 970 25.6723 169.450 T 75 955 16 260
1992268N11193 1992 96 WP MM WARD 1992-10-01 12:00:00 TS 25.5500 168.600 70 965 tokyo main 2790 2767 OOOO__________ jtwc_wp WP211992 25.5000 168.600 80 1 25.6000 168.600 5 70 965 9 70 70 1 260 180 0 25.6000 168.600 4 68 970 25.5000 168.600 T 75 955 15 257
1992268N11193 1992 96 WP MM WARD 1992-10-01 15:00:00 TS 25.3840 167.803 main 2767 2751 PPPP__________ WP211992 25.3146 167.785 80 1 25.4571 167.820 5 72 960 9 72 72 1 260 180 25.4571 167.820 4 68 967 25.3071 167.785 T 77 952 14 256
1992268N11193 1992 96 WP MM WARD 1992-10-01 18:00:00 TS 25.2000 167.050 75 955 tokyo main 2751 2708 OOOO__________ jtwc_wp WP211992 25.1000 167.000 80 1 25.3000 167.100 5 75 955 9 75 75 8 260 180 0 25.3000 167.100 4 68 965 25.1000 167.000 T 80 950 14 254
1992268N11193 1992 96 WP MM WARD 1992-10-01 21:00:00 TS 25.0033 166.339 main 2699 2660 PPPP__________ WP211992 24.8997 166.228 82 1 25.1068 166.450 5 77 952 9 75 75 8 260 180 25.1068 166.450 4 72 962 24.8997 166.228 T 80 950 13 252
1992268N11193 1992 96 WP MM WARD 1992-10-02 00:00:00 TS 24.8000 165.650 80 950 tokyo main 2660 2614 OOOO__________ jtwc_wp WP211992 24.7000 165.500 85 2 24.9000 165.800 5 80 950 9 75 75 8 260 180 0 24.9000 165.800 4 77 960 24.7000 165.500 T 80 950 13 252
1992268N11193 1992 96 WP MM WARD 1992-10-02 03:00:00 TS 24.5980 164.939 main 2605 2568 PPPP__________ WP211992 24.4921 164.828 87 2 24.7001 165.050 5 80 950 9 75 75 8 260 180 24.7001 165.050 4 82 955 24.4996 164.828 T 80 950 13 253
1992268N11193 1992 96 WP MM WARD 1992-10-02 06:00:00 TS 24.4000 164.250 80 950 tokyo main 2568 2523 OOOO__________ jtwc_wp WP211992 24.3000 164.200 90 2 24.5000 164.300 5 80 950 9 75 75 8 260 180 0 24.5000 164.300 5 87 950 24.3000 164.200 T 80 950 13 252
1992268N11193 1992 96 WP MM WARD 1992-10-02 09:00:00 TS 24.2009 163.608 main 2523 2487 PPPP__________ WP211992 24.1348 163.585 92 2 24.2921 163.628 5 80 950 9 75 75 8 260 180 24.2921 163.628 5 87 950 24.0847 163.593 T 80 950 12 252
1992268N11193 1992 96 WP MM WARD 1992-10-02 12:00:00 TS 24.0250 163.000 80 950 tokyo main 2487 2445 OOOO__________ jtwc_wp WP211992 24.0000 163.000 95 2 24.1000 163.000 5 80 950 9 75 75 8 260 180 0 24.1000 163.000 5 87 950 23.9000 163.000 T 80 950 12 254
1992268N11193 1992 96 WP MM WARD 1992-10-02 15:00:00 TS 23.8793 162.384 main 2445 2412 PPPP__________ WP211992 23.8848 162.435 95 2 23.9275 162.363 5 82 947 9 82 82 8 270 180 23.9275 162.363 5 87 950 23.7775 162.378 T 80 950 11 257
1992268N11193 1992 96 WP MM WARD 1992-10-02 18:00:00 TS 23.7750 161.825 85 945 tokyo main 2404 2379 OOOO__________ jtwc_wp WP211992 23.8000 161.900 95 2 23.8000 161.800 5 85 945 9 90 90 8 280 180 0 23.8000 161.800 5 87 950 23.7000 161.800 T 80 950 10 259
1992268N11193 1992 96 WP MM WARD 1992-10-02 21:00:00 TS 23.6910 161.359 main 2379 2348 PPPP__________ WP211992 23.7199 161.377 95 2 23.7121 161.370 5 85 945 9 90 90 8 280 180 23.7121 161.370 5 87 947 23.6197 161.320 T 77 952 8 263
1992268N11193 1992 96 WP MM WARD 1992-10-03 00:00:00 TS 23.6750 160.950 85 945 tokyo main 2348 2309 OOOO__________ jtwc_wp WP211992 23.7000 160.900 95 2 23.7000 161.000 5 85 945 9 90 90 8 280 180 0 23.7000 161.000 5 87 945 23.6000 160.900 T 75 955 8 273
1992268N11193 1992 96 WP MM WARD 1992-10-03 03:00:00 TS 23.7375 160.526 main 2309 2271 PPPP__________ WP211992 23.7624 160.463 95 2 23.7625 160.585 5 82 947 9 90 90 8 280 180 23.7625 160.585 5 87 945 23.6625 160.470 T 75 955 8 285
1992268N11193 1992 96 WP MM WARD 1992-10-03 06:00:00 TS 23.8750 160.150 80 950 tokyo main 2271 2240 OOOO__________ jtwc_wp WP211992 23.9000 160.100 95 2 23.9000 160.200 5 80 950 9 90 90 8 280 180 0 23.9000 160.200 5 87 945 23.8000 160.100 T 75 955 7 297
1992268N11193 1992 96 WP MM WARD 1992-10-03 09:00:00 TS 24.0505 159.845 main 2226 2196 PPPP__________ WP211992 24.0774 159.820 95 2 24.0774 159.870 5 80 950 9 95 95 8 280 180 24.0774 159.870 5 87 947 23.9699 159.820 T 75 955 6 309
1992268N11193 1992 96 WP MM WARD 1992-10-03 12:00:00 TS 24.2750 159.600 80 950 tokyo main 2196 2166 OOOO__________ jtwc_wp WP211992 24.3000 159.600 95 2 24.3000 159.600 5 80 950 9 100 100 8 280 180 0 24.3000 159.600 5 87 950 24.2000 159.600 T 75 955 6 317
1992268N11193 1992 96 WP MM WARD 1992-10-03 15:00:00 TS 24.5187 159.372 main 2166 2129 PPPP__________ WP211992 24.5275 159.377 95 2 24.5350 159.363 5 77 952 9 100 100 8 280 180 24.5350 159.370 5 87 950 24.4775 159.378 T 75 955 6 325
1992268N11193 1992 96 WP MM WARD 1992-10-03 18:00:00 TS 24.8000 159.200 75 955 tokyo main 2129 2100 OOOO__________ jtwc_wp WP211992 24.8000 159.200 95 2 24.8000 159.200 5 75 955 9 100 100 1 280 180 0 24.8000 159.200 5 87 950 24.8000 159.200 T 75 955 6 335
1992268N11193 1992 96 WP MM WARD 1992-10-03 21:00:00 TS 25.1025 159.081 main 2100 2071 PPPP__________ WP211992 25.1275 159.070 95 2 25.0700 159.120 5 75 955 9 100 100 1 280 180 25.0700 159.063 5 82 952 25.1425 159.070 T 75 955 7 346
1992268N11193 1992 96 WP MM WARD 1992-10-04 00:00:00 TS 25.4500 159.025 75 955 tokyo main 2065 2044 OOOO__________ jtwc_wp WP211992 25.5000 159.000 95 2 25.4000 159.100 5 75 955 9 100 100 1 280 180 0 25.4000 159.000 4 77 955 25.5000 159.000 T 75 955 8 355
1992268N11193 1992 96 WP MM WARD 1992-10-04 03:00:00 TS 25.8475 159.017 main 2044 2011 PPPP__________ WP211992 25.8850 158.985 95 2 25.8350 159.085 5 75 957 9 95 95 1 280 180 25.8350 159.027 4 77 955 25.8350 158.970 T 75 955 8 1
1992268N11193 1992 96 WP MM WARD 1992-10-04 06:00:00 TS 26.2750 159.050 75 960 tokyo main 2019 1993 OOOO__________ jtwc_wp WP211992 26.3000 159.000 95 2 26.3000 159.100 5 75 960 9 90 90 1 280 180 0 26.3000 159.100 4 77 955 26.2000 159.000 T 75 955 8 5
1992268N11193 1992 96 WP MM WARD 1992-10-04 09:00:00 TS 26.6738 159.098 main 1993 1968 PPPP__________ WP211992 26.7350 159.000 92 2 26.6700 159.143 5 72 962 9 85 85 1 280 180 26.6700 159.150 4 77 957 26.6200 159.100 T 72 957 9 6
1992268N11193 1992 96 WP MM WARD 1992-10-04 12:00:00 TS 27.1250 159.150 70 965 tokyo main 1976 1940 OOOO__________ jtwc_wp WP211992 27.2000 159.000 90 2 27.1000 159.200 5 70 965 9 80 80 1 280 180 0 27.1000 159.200 4 77 960 27.1000 159.200 T 70 960 10 6
1992268N11193 1992 96 WP MM WARD 1992-10-04 15:00:00 TS 27.6974 159.214 main 1940 1905 PPPP__________ WP211992 27.6850 159.007 87 2 27.7350 159.294 5 70 965 9 80 80 1 270 180 27.7349 159.302 4 72 962 27.6349 159.252 T 70 960 12 2
1992268N11193 1992 96 WP MM WARD 1992-10-04 18:00:00 TS 28.3000 159.200 70 965 tokyo main 1905 1861 OOOO__________ jtwc_wp WP211992 28.2000 159.000 85 2 28.4000 159.300 5 70 965 9 80 80 2 260 180 0 28.4000 159.300 4 68 965 28.2000 159.200 T 70 960 11 350
1992268N11193 1992 96 WP MM WARD 1992-10-04 21:00:00 TS 28.8252 158.992 main 1861 1817 PPPP__________ WP211992 28.7350 158.958 82 1 28.9077 159.066 5 70 965 9 80 80 2 260 180 28.9078 159.001 4 68 965 28.7502 158.944 T 70 960 11 340
1992268N11193 1992 96 WP MM WARD 1992-10-05 00:00:00 TS 29.3500 158.775 70 965 tokyo main 1812 1778 OOOO__________ jtwc_wp WP211992 29.3000 158.900 80 1 29.4000 158.800 5 70 965 9 80 80 2 260 180 0 29.4000 158.700 4 68 965 29.3000 158.700 T 70 960 11 348
1992268N11193 1992 96 WP MM WARD 1992-10-05 03:00:00 TS 29.9187 158.732 main 1778 1759 PPPP__________ WP211992 29.8850 158.835 80 1 29.9849 158.697 5 70 965 9 80 80 2 260 180 29.9774 158.697 4 68 967 29.8274 158.697 T 70 960 12 360
1992268N11193 1992 96 WP MM WARD 1992-10-05 06:00:00 TS 30.5250 158.775 70 965 tokyo main 1759 1732 OOOO__________ jtwc_wp WP211992 30.5000 158.800 80 1 30.6000 158.700 5 70 965 9 80 80 2 260 180 0 30.6000 158.800 4 68 970 30.4000 158.800 T 70 960 13 4
1992268N11193 1992 96 WP MM WARD 1992-10-05 09:00:00 TS 31.1638 158.840 main 1728 1714 PPPP__________ WP211992 31.1350 158.827 77 1 31.1925 158.777 5 70 965 9 80 80 2 260 180 31.2500 158.843 4 68 970 31.0775 158.914 T 67 962 13 6
1992268N11193 1992 96 WP MM WARD 1992-10-05 12:00:00 TS 31.8250 158.925 70 965 tokyo main 1714 1671 OOOO__________ jtwc_wp WP211992 31.8000 158.900 75 1 31.8000 158.900 5 70 965 9 80 80 2 260 180 0 31.9000 158.900 4 68 970 31.8000 159.000 T 65 965 13 6
1992268N11193 1992 96 WP MM WARD 1992-10-05 15:00:00 TS 32.4725 158.995 main 1660 1601 PPPP__________ WP211992 32.4775 158.978 72 1 32.4275 159.029 5 67 967 9 80 80 2 260 180 32.4850 159.022 4 68 970 32.5000 158.951 T 60 970 13 5
1992268N11193 1992 96 WP MM WARD 1992-10-05 18:00:00 TS 33.1500 159.050 65 970 tokyo main 1595 1531 OOOO__________ jtwc_wp WP211992 33.2000 159.100 70 1 33.1000 159.100 5 65 970 9 80 80 2 260 180 0 33.1000 159.100 4 68 970 33.2000 158.900 STS 55 975 14 0
1992268N11193 1992 96 WP MM WARD 1992-10-05 21:00:00 TS 33.8754 159.015 main 1522 1458 PPPP__________ WP211992 33.9774 159.263 67 1 33.8349 158.958 5 62 972 9 70 70 2 250 210 33.8347 158.936 4 63 972 33.8545 158.905 STS 52 977 15 1
1992268N11193 1992 96 WP MM WARD 1992-10-06 00:00:00 TS 34.6500 159.100 60 975 tokyo main 1448 1396 OOOO__________ jtwc_wp WP211992 34.8000 159.500 65 1 34.6000 158.900 4 60 975 9 60 60 9 240 240 0 34.6000 158.900 3 58 975 34.6000 159.100 STS 50 980 16 14
1992268N11193 1992 96 WP MM WARD 1992-10-06 03:00:00 TS 35.4375 159.476 main 1401 1353 PPPP__________ WP211992 35.6271 159.784 62 0 35.3120 159.167 4 57 977 9 55 55 9 240 240 35.2479 159.338 3 53 977 35.5629 159.616 STS 47 982 18 25
1992268N11193 1992 96 WP MM WARD 1992-10-06 06:00:00 TS 36.2800 160.033 55 980 tokyo main 1344 1296 OOOO__________ jtwc_wp WP211992 36.5000 160.200 60 0 36.1000 159.700 4 55 980 9 50 50 9 240 240 0 36.0000 160.000 3 48 980 36.6000 160.300 TS 45 985 20 27
1992268N11193 1992 96 WP MM WARD 1992-10-06 09:00:00 TS 37.2066 160.608 main 1296 1251 PPPP__________ WP211992 37.4042 160.748 57 0 37.0236 160.362 4 55 980 9 50 50 9 240 240 37.0078 160.536 3 48 982 37.5752 160.963 TS 45 985 23 29
1992268N11193 1992 96 WP MM WARD 1992-10-06 12:00:00 TS 38.2538 161.385 55 980 tokyo main 1248 1225 OOOO__________ jtwc_wp WP211992 38.4000 161.500 55 0 38.1000 161.300 4 55 980 9 50 50 9 240 240 0 38.2000 161.300 3 48 985 38.5000 161.600 TS 45 985 27 33
1992268N11193 1992 96 WP MM WARD 1992-10-06 15:00:00 TS 39.4459 162.481 main 1232 1222 PPP___________ WP211992 39.5166 162.376 52 0 39.3203 162.545 4 52 982 9 9 240 240 39.5008 162.520 3 48 985 TS 31 38
1992268N11193 1992 96 WP MM WARD 1992-10-06 18:00:00 TS 40.7000 163.891 50 985 tokyo main 1223 1173 OOO___________ jtwc_wp WP211992 40.7000 163.600 50 0 40.6000 164.000 4 50 985 0 9 240 240 0 40.8000 164.000 3 48 985 32 42
1992268N11193 1992 96 WP MM WARD 1992-10-06 21:00:00 TS 41.8477 165.289 main 1178 1158 PPP___________ WP211992 41.8692 165.293 45 0 41.7887 165.287 4 988 0 9 41.8961 165.288 3 43 987 33 46
1992268N11193 1992 96 WP MM WARD 1992-10-07 00:00:00 ET 43.0000 167.038 992 tokyo main 1160 1160 OOO___________ jtwc_wp WP211992 43.0000 167.300 40 0 43.0000 167.000 6 992 0 0 0 43.0000 167.000 9 38 990 40 53
1992268N11193 1992 96 WP MM WARD 1992-10-07 03:00:00 ET 44.2483 169.637 main 1192 1192 _PP___________ WP211992 -1 44.2545 169.661 6 994 0 0 44.2359 169.587 9 38 992 48 59
1992268N11193 1992 96 WP MM WARD 1992-10-07 06:00:00 ET 45.5000 172.800 996 tokyo main 1242 1242 _OO___________ -1 45.5000 172.800 6 996 0 0 0 45.5000 172.800 9 38 995 50 59
1992268N11193 1992 96 WP MM WARD 1992-10-07 09:00:00 ET 46.7869 175.738 main 1286 1034 _P____________ -1 46.7869 175.738 6 998 0 0 9 49 61
1992268N11193 1992 96 WP MM WARD 1992-10-07 12:00:00 ET 47.9000 179.000 1000 tokyo main 1015 761 _O____________ -1 47.9000 179.000 6 1000 0 0 0 51 69
1992268N11193 1992 96 EP CP WARD 1992-10-07 15:00:00 ET 48.6148 182.825 main 750 526 _P____________ -1 48.6148 -177.175 6 1001 0 0 54 78
1992268N11193 1992 96 EP CP WARD 1992-10-07 18:00:00 ET 49.0000 187.000 main 518 _O____________ -1 49.0000 187.000 6 1002 0 0 0 55 82

IBTrACS Databaseについて

本データベースは、米国NOAAが公開する1842年以降の世界の熱帯低気圧のベストトラックデータアーカイブInternational Best Track Archive for Climate Stewardship (IBTrACS)を、ウェブで閲覧しやすい形式に変換したものです。

最終更新日:2021-11-26